sensor_id;sensor_type;location;lat;lon;timestamp;pressure;altitude;pressure_sealevel;temperature;humidity
11349;BME280;5729;43.570;27.826;2023-03-23T00:01:13;99194.75;;;8.56;100.00
11349;BME280;5729;43.570;27.826;2023-03-23T00:03:40;99194.59;;;8.64;100.00
11349;BME280;5729;43.570;27.826;2023-03-23T00:06:07;99186.28;;;8.69;100.00
11349;BME280;5729;43.570;27.826;2023-03-23T00:08:34;99195.34;;;8.77;100.00
11349;BME280;5729;43.570;27.826;2023-03-23T00:11:14;99197.44;;;8.84;100.00
11349;BME280;5729;43.570;27.826;2023-03-23T00:13:41;99185.09;;;8.67;100.00
11349;BME280;5729;43.570;27.826;2023-03-23T00:16:08;99186.19;;;8.78;100.00
11349;BME280;5729;43.570;27.826;2023-03-23T00:18:46;99190.50;;;8.83;100.00
11349;BME280;5729;43.570;27.826;2023-03-23T00:21:12;99197.00;;;8.82;100.00
11349;BME280;5729;43.570;27.826;2023-03-23T00:23:38;99190.72;;;8.90;100.00
11349;BME280;5729;43.570;27.826;2023-03-23T00:26:04;99191.63;;;8.82;100.00
11349;BME280;5729;43.570;27.826;2023-03-23T00:28:30;99195.03;;;8.79;100.00
11349;BME280;5729;43.570;27.826;2023-03-23T00:31:00;99191.00;;;8.72;100.00
11349;BME280;5729;43.570;27.826;2023-03-23T00:33:29;99178.69;;;8.71;100.00
11349;BME280;5729;43.570;27.826;2023-03-23T00:35:55;99178.97;;;8.82;100.00
11349;BME280;5729;43.570;27.826;2023-03-23T00:38:23;99188.25;;;8.57;100.00
11349;BME280;5729;43.570;27.826;2023-03-23T00:40:49;99159.03;;;8.55;100.00
11349;BME280;5729;43.570;27.826;2023-03-23T00:43:17;99180.69;;;8.74;100.00
11349;BME280;5729;43.570;27.826;2023-03-23T00:45:44;99171.84;;;8.74;100.00
11349;BME280;5729;43.570;27.826;2023-03-23T00:48:11;99170.50;;;8.80;100.00
11349;BME280;5729;43.570;27.826;2023-03-23T00:50:38;99169.00;;;8.83;100.00
11349;BME280;5729;43.570;27.826;2023-03-23T00:53:04;99175.31;;;8.74;100.00
11349;BME280;5729;43.570;27.826;2023-03-23T00:55:30;99168.56;;;8.81;100.00
11349;BME280;5729;43.570;27.826;2023-03-23T00:57:56;99177.41;;;8.81;100.00
11349;BME280;5729;43.570;27.826;2023-03-23T01:00:21;99176.72;;;8.84;100.00
11349;BME280;5729;43.570;27.826;2023-03-23T01:02:48;99178.41;;;8.89;100.00
11349;BME280;5729;43.570;27.826;2023-03-23T01:05:17;99175.88;;;8.80;100.00
11349;BME280;5729;43.570;27.826;2023-03-23T01:07:42;99171.13;;;8.89;100.00
11349;BME280;5729;43.570;27.826;2023-03-23T01:10:10;99180.59;;;8.71;100.00
11349;BME280;5729;43.570;27.826;2023-03-23T01:12:38;99170.13;;;8.82;100.00
11349;BME280;5729;43.570;27.826;2023-03-23T01:15:04;99167.03;;;8.80;100.00
11349;BME280;5729;43.570;27.826;2023-03-23T01:17:30;99165.53;;;8.82;100.00
11349;BME280;5729;43.570;27.826;2023-03-23T01:19:55;99170.84;;;8.79;100.00
11349;BME280;5729;43.570;27.826;2023-03-23T01:22:21;99167.44;;;8.82;100.00
11349;BME280;5729;43.570;27.826;2023-03-23T01:24:47;99157.13;;;8.84;100.00
11349;BME280;5729;43.570;27.826;2023-03-23T01:27:12;99117.19;;;8.54;100.00
11349;BME280;5729;43.570;27.826;2023-03-23T01:29:37;99168.03;;;8.75;100.00
11349;BME280;5729;43.570;27.826;2023-03-23T01:32:03;99168.34;;;8.86;100.00
11349;BME280;5729;43.570;27.826;2023-03-23T01:34:28;99164.69;;;8.78;100.00
11349;BME280;5729;43.570;27.826;2023-03-23T01:36:54;99164.69;;;8.78;100.00
11349;BME280;5729;43.570;27.826;2023-03-23T01:39:20;99170.00;;;8.90;100.00
11349;BME280;5729;43.570;27.826;2023-03-23T01:41:45;99171.03;;;8.86;100.00
11349;BME280;5729;43.570;27.826;2023-03-23T01:46:43;99171.47;;;8.88;100.00
11349;BME280;5729;43.570;27.826;2023-03-23T01:49:20;99165.53;;;8.82;100.00
11349;BME280;5729;43.570;27.826;2023-03-23T01:51:51;99176.22;;;8.79;100.00
11349;BME280;5729;43.570;27.826;2023-03-23T01:54:18;99174.13;;;8.60;100.00
11349;BME280;5729;43.570;27.826;2023-03-23T01:57:07;99174.81;;;8.57;100.00
11349;BME280;5729;43.570;27.826;2023-03-23T01:59:36;99177.06;;;8.55;100.00
11349;BME280;5729;43.570;27.826;2023-03-23T02:02:02;99171.69;;;8.55;100.00
11349;BME280;5729;43.570;27.826;2023-03-23T02:04:30;99174.03;;;8.56;100.00
11349;BME280;5729;43.570;27.826;2023-03-23T02:06:56;99163.09;;;8.37;100.00
11349;BME280;5729;43.570;27.826;2023-03-23T02:09:25;99162.44;;;8.40;100.00
11349;BME280;5729;43.570;27.826;2023-03-23T02:11:52;99176.16;;;8.51;100.00
11349;BME280;5729;43.570;27.826;2023-03-23T02:14:19;99174.06;;;8.44;100.00
11349;BME280;5729;43.570;27.826;2023-03-23T02:16:58;99169.72;;;8.15;100.00
11349;BME280;5729;43.570;27.826;2023-03-23T02:25:02;99185.00;;;8.51;100.00
11349;BME280;5729;43.570;27.826;2023-03-23T02:30:47;99183.44;;;8.50;100.00
11349;BME280;5729;43.570;27.826;2023-03-23T02:35:55;99181.47;;;8.75;100.00
11349;BME280;5729;43.570;27.826;2023-03-23T02:39:05;99171.97;;;8.78;100.00
11349;BME280;5729;43.570;27.826;2023-03-23T02:41:36;99179.19;;;8.89;100.00
11349;BME280;5729;43.570;27.826;2023-03-23T02:44:06;99181.19;;;8.92;100.00
11349;BME280;5729;43.570;27.826;2023-03-23T02:46:33;99176.59;;;8.93;100.00
11349;BME280;5729;43.570;27.826;2023-03-23T02:49:02;99173.75;;;8.73;100.00
11349;BME280;5729;43.570;27.826;2023-03-23T02:51:29;99172.03;;;8.81;100.00
11349;BME280;5729;43.570;27.826;2023-03-23T02:53:56;99182.66;;;8.90;100.00
11349;BME280;5729;43.570;27.826;2023-03-23T02:56:25;99187.00;;;8.94;100.00
11349;BME280;5729;43.570;27.826;2023-03-23T02:58:53;99182.72;;;8.78;100.00
11349;BME280;5729;43.570;27.826;2023-03-23T03:03:50;99187.84;;;8.70;100.00
11349;BME280;5729;43.570;27.826;2023-03-23T03:06:36;99185.47;;;8.41;100.00
11349;BME280;5729;43.570;27.826;2023-03-23T03:11:55;99193.44;;;8.37;100.00
11349;BME280;5729;43.570;27.826;2023-03-23T03:14:27;99202.91;;;8.47;100.00
11349;BME280;5729;43.570;27.826;2023-03-23T03:17:01;99192.53;;;8.46;100.00
11349;BME280;5729;43.570;27.826;2023-03-23T03:19:32;99197.63;;;8.63;100.00
11349;BME280;5729;43.570;27.826;2023-03-23T03:21:59;99204.22;;;8.65;100.00
11349;BME280;5729;43.570;27.826;2023-03-23T03:24:27;99192.13;;;8.71;100.00
11349;BME280;5729;43.570;27.826;2023-03-23T03:26:55;99197.00;;;8.82;100.00
11349;BME280;5729;43.570;27.826;2023-03-23T03:29:32;99195.03;;;8.79;100.00
11349;BME280;5729;43.570;27.826;2023-03-23T03:32:00;99208.19;;;8.56;100.00
11349;BME280;5729;43.570;27.826;2023-03-23T03:34:27;99213.88;;;8.66;100.00
11349;BME280;5729;43.570;27.826;2023-03-23T03:36:55;99206.59;;;8.67;100.00
11349;BME280;5729;43.570;27.826;2023-03-23T03:39:24;99216.84;;;8.77;100.00
11349;BME280;5729;43.570;27.826;2023-03-23T03:41:50;99213.84;;;8.79;100.00
11349;BME280;5729;43.570;27.826;2023-03-23T03:44:15;99215.47;;;8.83;100.00
11349;BME280;5729;43.570;27.826;2023-03-23T03:46:41;99209.03;;;8.72;100.00
11349;BME280;5729;43.570;27.826;2023-03-23T03:49:08;99215.34;;;8.92;100.00
11349;BME280;5729;43.570;27.826;2023-03-23T03:51:35;99218.94;;;8.84;100.00
11349;BME280;5729;43.570;27.826;2023-03-23T03:54:01;99218.03;;;8.92;100.00
11349;BME280;5729;43.570;27.826;2023-03-23T03:56:27;99220.53;;;8.85;100.00
11349;BME280;5729;43.570;27.826;2023-03-23T03:58:53;99219.50;;;8.89;100.00
11349;BME280;5729;43.570;27.826;2023-03-23T04:01:20;99223.84;;;8.94;100.00
11349;BME280;5729;43.570;27.826;2023-03-23T04:03:48;99209.94;;;8.64;100.00
11349;BME280;5729;43.570;27.826;2023-03-23T04:06:15;99226.38;;;8.74;100.00
11349;BME280;5729;43.570;27.826;2023-03-23T04:08:41;99219.53;;;8.77;100.00
11349;BME280;5729;43.570;27.826;2023-03-23T04:11:08;99221.63;;;8.84;100.00
11349;BME280;5729;43.570;27.826;2023-03-23T04:13:33;99217.41;;;8.70;100.00
11349;BME280;5729;43.570;27.826;2023-03-23T04:15:59;99220.69;;;8.64;100.00
11349;BME280;5729;43.570;27.826;2023-03-23T04:18:26;99205.53;;;8.71;100.00
11349;BME280;5729;43.570;27.826;2023-03-23T04:20:52;99219.22;;;8.79;100.00
11349;BME280;5729;43.570;27.826;2023-03-23T04:23:19;99214.03;;;8.86;100.00
11349;BME280;5729;43.570;27.826;2023-03-23T04:25:49;99221.56;;;8.80;100.00
11349;BME280;5729;43.570;27.826;2023-03-23T04:28:17;99224.19;;;8.92;100.00
11349;BME280;5729;43.570;27.826;2023-03-23T04:30:44;99211.47;;;8.77;100.00
11349;BME280;5729;43.570;27.826;2023-03-23T04:33:11;99224.31;;;8.84;100.00
11349;BME280;5729;43.570;27.826;2023-03-23T04:35:42;99241.97;;;8.97;100.00
11349;BME280;5729;43.570;27.826;2023-03-23T04:38:15;99236.78;;;9.04;100.00
11349;BME280;5729;43.570;27.826;2023-03-23T04:40:43;99229.28;;;9.09;100.00
11349;BME280;5729;43.570;27.826;2023-03-23T04:43:08;99241.31;;;9.00;100.00
11349;BME280;5729;43.570;27.826;2023-03-23T04:45:38;99239.94;;;9.06;100.00
11349;BME280;5729;43.570;27.826;2023-03-23T04:48:07;99248.25;;;9.01;100.00
11349;BME280;5729;43.570;27.826;2023-03-23T04:50:33;99242.56;;;8.90;100.00
11349;BME280;5729;43.570;27.826;2023-03-23T04:53:00;99247.59;;;8.92;100.00
11349;BME280;5729;43.570;27.826;2023-03-23T04:55:33;99245.16;;;8.87;100.00
11349;BME280;5729;43.570;27.826;2023-03-23T04:58:03;99247.66;;;8.67;100.00
11349;BME280;5729;43.570;27.826;2023-03-23T05:00:29;99257.53;;;8.63;100.00
11349;BME280;5729;43.570;27.826;2023-03-23T05:02:55;99259.53;;;8.79;100.00
11349;BME280;5729;43.570;27.826;2023-03-23T05:05:22;99265.97;;;8.90;100.00
11349;BME280;5729;43.570;27.826;2023-03-23T05:07:48;99257.31;;;8.96;100.00
11349;BME280;5729;43.570;27.826;2023-03-23T05:10:15;99263.69;;;9.04;100.00
11349;BME280;5729;43.570;27.826;2023-03-23T05:12:41;99255.66;;;8.92;100.00
11349;BME280;5729;43.570;27.826;2023-03-23T05:15:08;99271.09;;;8.95;100.00
11349;BME280;5729;43.570;27.826;2023-03-23T05:17:34;99275.25;;;8.92;100.00
11349;BME280;5729;43.570;27.826;2023-03-23T05:20:00;99278.84;;;8.96;100.00
11349;BME280;5729;43.570;27.826;2023-03-23T05:22:27;99266.00;;;8.78;100.00
11349;BME280;5729;43.570;27.826;2023-03-23T05:24:53;99281.56;;;8.84;100.00
11349;BME280;5729;43.570;27.826;2023-03-23T05:27:19;99275.84;;;8.86;100.00
11349;BME280;5729;43.570;27.826;2023-03-23T05:29:45;99283.69;;;8.91;100.00
11349;BME280;5729;43.570;27.826;2023-03-23T05:32:15;99279.66;;;8.85;100.00
11349;BME280;5729;43.570;27.826;2023-03-23T05:34:42;99295.41;;;8.98;100.00
11349;BME280;5729;43.570;27.826;2023-03-23T05:37:09;99292.28;;;8.96;100.00
11349;BME280;5729;43.570;27.826;2023-03-23T05:39:37;99288.03;;;8.95;100.00
11349;BME280;5729;43.570;27.826;2023-03-23T05:42:03;99288.13;;;8.99;100.00
11349;BME280;5729;43.570;27.826;2023-03-23T05:44:29;99289.44;;;9.05;100.00
11349;BME280;5729;43.570;27.826;2023-03-23T05:46:55;99286.28;;;9.15;100.00
11349;BME280;5729;43.570;27.826;2023-03-23T05:49:21;99283.84;;;9.10;100.00
11349;BME280;5729;43.570;27.826;2023-03-23T05:51:47;99299.25;;;9.25;100.00
11349;BME280;5729;43.570;27.826;2023-03-23T05:54:15;99297.78;;;9.28;100.00
11349;BME280;5729;43.570;27.826;2023-03-23T05:56:40;99300.47;;;9.28;100.00
11349;BME280;5729;43.570;27.826;2023-03-23T05:59:06;99303.38;;;9.35;100.00
11349;BME280;5729;43.570;27.826;2023-03-23T06:01:32;99302.03;;;9.29;100.00
11349;BME280;5729;43.570;27.826;2023-03-23T06:03:58;99305.16;;;9.31;100.00
11349;BME280;5729;43.570;27.826;2023-03-23T06:06:28;99312.31;;;9.39;100.00
11349;BME280;5729;43.570;27.826;2023-03-23T06:08:55;99315.44;;;9.41;100.00
11349;BME280;5729;43.570;27.826;2023-03-23T06:11:22;99312.00;;;9.28;100.00
11349;BME280;5729;43.570;27.826;2023-03-23T06:13:48;99305.06;;;9.27;100.00
11349;BME280;5729;43.570;27.826;2023-03-23T06:16:14;99313.25;;;9.31;100.00
11349;BME280;5729;43.570;27.826;2023-03-23T06:18:40;99300.75;;;9.38;100.00
11349;BME280;5729;43.570;27.826;2023-03-23T06:21:06;99320.25;;;9.07;100.00
11349;BME280;5729;43.570;27.826;2023-03-23T06:23:33;99318.28;;;9.32;100.00
11349;BME280;5729;43.570;27.826;2023-03-23T06:26:01;99317.28;;;9.53;100.00
11349;BME280;5729;43.570;27.826;2023-03-23T06:28:27;99323.91;;;9.55;100.00
11349;BME280;5729;43.570;27.826;2023-03-23T06:30:53;99321.78;;;9.48;100.00
11349;BME280;5729;43.570;27.826;2023-03-23T06:33:19;99309.78;;;9.58;100.00
11349;BME280;5729;43.570;27.826;2023-03-23T06:35:44;99331.97;;;9.55;100.00
11349;BME280;5729;43.570;27.826;2023-03-23T06:38:16;99323.34;;;9.77;100.00
11349;BME280;5729;43.570;27.826;2023-03-23T06:40:42;99328.84;;;9.81;100.00
11349;BME280;5729;43.570;27.826;2023-03-23T06:43:11;99325.44;;;9.68;100.00
11349;BME280;5729;43.570;27.826;2023-03-23T06:45:36;99330.75;;;9.96;100.00
11349;BME280;5729;43.570;27.826;2023-03-23T06:48:02;99323.81;;;9.95;100.00
11349;BME280;5729;43.570;27.826;2023-03-23T06:50:27;99323.75;;;9.64;100.00
11349;BME280;5729;43.570;27.826;2023-03-23T06:52:53;99333.66;;;10.03;100.00
11349;BME280;5729;43.570;27.826;2023-03-23T06:55:18;99327.88;;;10.05;100.00
11349;BME280;5729;43.570;27.826;2023-03-23T06:57:44;99328.84;;;9.97;100.00
11349;BME280;5729;43.570;27.826;2023-03-23T07:00:11;99334.50;;;10.07;100.00
11349;BME280;5729;43.570;27.826;2023-03-23T07:02:42;99331.22;;;10.14;100.00
11349;BME280;5729;43.570;27.826;2023-03-23T07:05:10;99330.00;;;10.11;100.00
11349;BME280;5729;43.570;27.826;2023-03-23T07:07:39;99342.34;;;10.28;100.00
11349;BME280;5729;43.570;27.826;2023-03-23T07:10:07;99337.59;;;10.22;100.00
11349;BME280;5729;43.570;27.826;2023-03-23T07:12:35;99343.25;;;10.32;100.00
11349;BME280;5729;43.570;27.826;2023-03-23T07:15:02;99337.75;;;10.29;100.00
11349;BME280;5729;43.570;27.826;2023-03-23T07:17:28;99337.75;;;10.29;100.00
11349;BME280;5729;43.570;27.826;2023-03-23T07:19:53;99337.06;;;10.32;100.00
11349;BME280;5729;43.570;27.826;2023-03-23T07:22:19;99342.72;;;10.42;100.00
11349;BME280;5729;43.570;27.826;2023-03-23T07:24:44;99348.78;;;10.39;100.00
11349;BME280;5729;43.570;27.826;2023-03-23T07:27:10;99354.03;;;10.48;100.00
11349;BME280;5729;43.570;27.826;2023-03-23T07:29:36;99351.16;;;10.57;100.00
11349;BME280;5729;43.570;27.826;2023-03-23T07:32:04;99353.41;;;10.39;100.00
11349;BME280;5729;43.570;27.826;2023-03-23T07:34:30;99362.41;;;10.15;100.00
11349;BME280;5729;43.570;27.826;2023-03-23T07:36:57;99363.22;;;10.31;100.00
11349;BME280;5729;43.570;27.826;2023-03-23T07:39:22;99364.88;;;10.36;100.00
11349;BME280;5729;43.570;27.826;2023-03-23T07:41:49;99361.94;;;10.25;100.00
11349;BME280;5729;43.570;27.826;2023-03-23T07:44:15;99347.84;;;10.47;100.00
11349;BME280;5729;43.570;27.826;2023-03-23T07:46:40;99356.88;;;10.55;100.00
11349;BME280;5729;43.570;27.826;2023-03-23T07:49:07;99361.75;;;10.65;100.00
11349;BME280;5729;43.570;27.826;2023-03-23T07:51:33;99358.69;;;10.67;100.00
11349;BME280;5729;43.570;27.826;2023-03-23T07:54:00;99358.25;;;10.65;100.00
11349;BME280;5729;43.570;27.826;2023-03-23T07:56:28;99356.25;;;10.77;100.00
11349;BME280;5729;43.570;27.826;2023-03-23T07:58:53;99354.53;;;10.53;100.00
11349;BME280;5729;43.570;27.826;2023-03-23T08:01:19;99354.00;;;10.64;100.00
11349;BME280;5729;43.570;27.826;2023-03-23T08:03:45;99364.66;;;10.91;100.00
11349;BME280;5729;43.570;27.826;2023-03-23T08:06:12;99358.25;;;10.80;100.00
11349;BME280;5729;43.570;27.826;2023-03-23T08:08:38;99360.56;;;10.98;100.00
11349;BME280;5729;43.570;27.826;2023-03-23T08:11:05;99365.44;;;11.27;100.00
11349;BME280;5729;43.570;27.826;2023-03-23T08:13:31;99359.19;;;11.23;100.00
11349;BME280;5729;43.570;27.826;2023-03-23T08:16:00;99361.13;;;11.07;100.00
11349;BME280;5729;43.570;27.826;2023-03-23T08:18:29;99354.91;;;11.22;100.00
11349;BME280;5729;43.570;27.826;2023-03-23T08:20:54;99361.31;;;11.33;100.00
11349;BME280;5729;43.570;27.826;2023-03-23T08:23:20;99370.50;;;11.48;100.00
11349;BME280;5729;43.570;27.826;2023-03-23T08:25:47;99363.44;;;11.43;100.00
11349;BME280;5729;43.570;27.826;2023-03-23T08:28:13;99370.75;;;11.23;100.00
11349;BME280;5729;43.570;27.826;2023-03-23T08:30:41;99367.28;;;11.23;100.00
11349;BME280;5729;43.570;27.826;2023-03-23T08:33:08;99366.84;;;11.40;100.00
11349;BME280;5729;43.570;27.826;2023-03-23T08:35:36;99358.34;;;11.38;100.00
11349;BME280;5729;43.570;27.826;2023-03-23T08:38:01;99370.75;;;11.43;100.00
11349;BME280;5729;43.570;27.826;2023-03-23T08:40:28;99362.81;;;11.31;100.00
11349;BME280;5729;43.570;27.826;2023-03-23T08:42:54;99367.53;;;11.18;100.00
11349;BME280;5729;43.570;27.826;2023-03-23T08:45:22;99353.22;;;11.14;100.00
11349;BME280;5729;43.570;27.826;2023-03-23T08:47:49;99366.84;;;11.40;100.00
11349;BME280;5729;43.570;27.826;2023-03-23T08:50:19;99368.97;;;11.31;100.00
11349;BME280;5729;43.570;27.826;2023-03-23T08:52:45;99373.84;;;11.60;100.00
11349;BME280;5729;43.570;27.826;2023-03-23T08:55:12;99375.69;;;11.37;100.00
11349;BME280;5729;43.570;27.826;2023-03-23T08:57:39;99371.41;;;11.75;100.00
11349;BME280;5729;43.570;27.826;2023-03-23T09:00:07;99371.00;;;11.73;100.00
11349;BME280;5729;43.570;27.826;2023-03-23T09:02:44;99372.19;;;11.56;100.00
11349;BME280;5729;43.570;27.826;2023-03-23T09:05:10;99362.03;;;11.88;100.00
11349;BME280;5729;43.570;27.826;2023-03-23T09:07:40;99367.25;;;11.77;100.00
11349;BME280;5729;43.570;27.826;2023-03-23T09:10:06;99373.28;;;11.90;100.00
11349;BME280;5729;43.570;27.826;2023-03-23T09:12:32;99364.16;;;11.40;100.00
11349;BME280;5729;43.570;27.826;2023-03-23T09:14:58;99372.00;;;11.84;100.00
11349;BME280;5729;43.570;27.826;2023-03-23T09:17:23;99371.13;;;11.99;100.00
11349;BME280;5729;43.570;27.826;2023-03-23T09:19:48;99367.81;;;12.28;100.00
11349;BME280;5729;43.570;27.826;2023-03-23T09:22:14;99372.06;;;12.52;100.00
11349;BME280;5729;43.570;27.826;2023-03-23T09:24:45;99359.19;;;12.46;100.00
11349;BME280;5729;43.570;27.826;2023-03-23T09:27:10;99363.78;;;12.68;100.00
11349;BME280;5729;43.570;27.826;2023-03-23T09:29:36;99366.88;;;12.93;100.00
11349;BME280;5729;43.570;27.826;2023-03-23T09:32:02;99364.38;;;13.07;100.00
11349;BME280;5729;43.570;27.826;2023-03-23T09:34:27;99353.28;;;12.89;100.00
11349;BME280;5729;43.570;27.826;2023-03-23T09:36:54;99363.09;;;12.97;100.00
11349;BME280;5729;43.570;27.826;2023-03-23T09:39:19;99358.06;;;12.99;100.00
11349;BME280;5729;43.570;27.826;2023-03-23T09:42:17;99360.34;;;13.20;100.00
11349;BME280;5729;43.570;27.826;2023-03-23T09:50:24;99356.56;;;13.28;100.00
11349;BME280;5729;43.570;27.826;2023-03-23T09:53:13;99355.28;;;13.19;100.00
11349;BME280;5729;43.570;27.826;2023-03-23T09:55:41;99355.50;;;13.10;100.00
11349;BME280;5729;43.570;27.826;2023-03-23T09:58:33;99351.06;;;13.21;100.00
11349;BME280;5729;43.570;27.826;2023-03-23T10:01:16;99350.84;;;13.67;100.00
11349;BME280;5729;43.570;27.826;2023-03-23T10:03:44;99357.38;;;13.62;100.00
11349;BME280;5729;43.570;27.826;2023-03-23T10:06:16;99354.44;;;13.74;100.00
11349;BME280;5729;43.570;27.826;2023-03-23T10:08:51;99349.16;;;13.55;100.00
11349;BME280;5729;43.570;27.826;2023-03-23T10:11:31;99351.47;;;13.23;100.00
11349;BME280;5729;43.570;27.826;2023-03-23T10:17:30;99345.38;;;13.03;100.00
11349;BME280;5729;43.570;27.826;2023-03-23T10:20:28;99357.28;;;12.99;100.00
11349;BME280;5729;43.570;27.826;2023-03-23T10:26:22;99354.66;;;13.02;100.00
11349;BME280;5729;43.570;27.826;2023-03-23T10:28:54;99355.69;;;12.94;100.00
11349;BME280;5729;43.570;27.826;2023-03-23T10:31:34;99347.72;;;13.31;100.00
11349;BME280;5729;43.570;27.826;2023-03-23T10:39:57;99328.25;;;14.77;100.00
11349;BME280;5729;43.570;27.826;2023-03-23T10:42:32;99335.38;;;15.03;100.00
11349;BME280;5729;43.570;27.826;2023-03-23T10:45:00;99328.22;;;14.74;100.00
11349;BME280;5729;43.570;27.826;2023-03-23T10:47:38;99334.06;;;14.79;100.00
11349;BME280;5729;43.570;27.826;2023-03-23T10:50:06;99330.94;;;14.74;100.00
11349;BME280;5729;43.570;27.826;2023-03-23T10:52:39;99333.72;;;14.33;100.00
11349;BME280;5729;43.570;27.826;2023-03-23T10:55:15;99322.34;;;14.65;100.00
11349;BME280;5729;43.570;27.826;2023-03-23T10:57:46;99320.06;;;14.70;100.00
11349;BME280;5729;43.570;27.826;2023-03-23T11:00:21;99312.91;;;15.06;100.00
11349;BME280;5729;43.570;27.826;2023-03-23T11:03:04;99308.50;;;14.84;100.00
11349;BME280;5729;43.570;27.826;2023-03-23T11:05:40;99313.25;;;15.01;100.00
11349;BME280;5729;43.570;27.826;2023-03-23T11:08:13;99305.06;;;14.94;100.00
11349;BME280;5729;43.570;27.826;2023-03-23T11:11:28;99305.97;;;15.16;100.00
11349;BME280;5729;43.570;27.826;2023-03-23T11:13:32;99306.25;;;14.97;100.00
11349;BME280;5729;43.570;27.826;2023-03-23T11:15:58;99309.53;;;14.62;100.00
11349;BME280;5729;43.570;27.826;2023-03-23T11:18:34;99312.59;;;14.57;100.00
11349;BME280;5729;43.570;27.826;2023-03-23T11:21:01;99302.69;;;14.31;100.00
11349;BME280;5729;43.570;27.826;2023-03-23T11:23:36;99293.53;;;14.02;100.00
11349;BME280;5729;43.570;27.826;2023-03-23T11:28:36;99299.44;;;13.70;100.00
11349;BME280;5729;43.570;27.826;2023-03-23T11:31:05;99295.81;;;13.96;100.00
11349;BME280;5729;43.570;27.826;2023-03-23T11:36:19;99289.94;;;14.35;100.00
11349;BME280;5729;43.570;27.826;2023-03-23T11:38:45;99295.38;;;14.38;100.00
11349;BME280;5729;43.570;27.826;2023-03-23T11:41:12;99290.78;;;15.01;100.00
11349;BME280;5729;43.570;27.826;2023-03-23T11:43:41;99284.22;;;15.12;100.00
11349;BME280;5729;43.570;27.826;2023-03-23T11:46:17;99276.28;;;15.69;100.00
11349;BME280;5729;43.570;27.826;2023-03-23T11:48:56;99267.41;;;15.90;100.00
11349;BME280;5729;43.570;27.826;2023-03-23T11:51:41;99269.81;;;15.01;100.00
11349;BME280;5729;43.570;27.826;2023-03-23T11:54:19;99278.88;;;15.37;100.00
11349;BME280;5729;43.570;27.826;2023-03-23T11:56:47;99286.44;;;15.90;100.00
11349;BME280;5729;43.570;27.826;2023-03-23T11:59:16;99275.97;;;16.03;100.00
11349;BME280;5729;43.570;27.826;2023-03-23T12:01:53;99267.41;;;16.29;100.00
11349;BME280;5729;43.570;27.826;2023-03-23T12:33:03;99247.16;;;15.59;100.00
11349;BME280;5729;43.570;27.826;2023-03-23T12:41:16;99242.94;;;16.11;100.00
11349;BME280;5729;43.570;27.826;2023-03-23T12:49:27;99235.09;;;16.59;100.00
11349;BME280;5729;43.570;27.826;2023-03-23T12:52:04;99238.66;;;15.96;100.00
11349;BME280;5729;43.570;27.826;2023-03-23T12:57:31;99237.69;;;17.09;100.00
11349;BME280;5729;43.570;27.826;2023-03-23T13:03:04;99229.34;;;18.03;100.00
11349;BME280;5729;43.570;27.826;2023-03-23T13:05:46;99236.47;;;17.87;100.00
11349;BME280;5729;43.570;27.826;2023-03-23T13:08:24;99238.28;;;17.49;100.00
11349;BME280;5729;43.570;27.826;2023-03-23T13:10:55;99233.84;;;16.99;100.00
11349;BME280;5729;43.570;27.826;2023-03-23T13:13:24;99228.75;;;17.09;100.00
11349;BME280;5729;43.570;27.826;2023-03-23T13:16:07;99229.19;;;17.00;100.00
11349;BME280;5729;43.570;27.826;2023-03-23T13:18:57;99229.84;;;17.22;100.00
11349;BME280;5729;43.570;27.826;2023-03-23T13:21:41;99218.78;;;17.54;100.00
11349;BME280;5729;43.570;27.826;2023-03-23T13:24:14;99223.31;;;17.74;100.00
11349;BME280;5729;43.570;27.826;2023-03-23T13:26:42;99225.38;;;18.11;100.00
11349;BME280;5729;43.570;27.826;2023-03-23T13:29:20;99227.31;;;18.14;100.00
11349;BME280;5729;43.570;27.826;2023-03-23T13:31:50;99227.81;;;18.43;100.00
11349;BME280;5729;43.570;27.826;2023-03-23T13:34:28;99226.41;;;18.69;100.00
11349;BME280;5729;43.570;27.826;2023-03-23T13:36:57;99229.31;;;18.07;100.00
11349;BME280;5729;43.570;27.826;2023-03-23T13:45:18;99223.56;;;20.18;98.70
11349;BME280;5729;43.570;27.826;2023-03-23T13:47:46;99218.84;;;20.85;100.00
11349;BME280;5729;43.570;27.826;2023-03-23T14:08:09;99226.63;;;18.03;100.00
11349;BME280;5729;43.570;27.826;2023-03-23T14:10:39;99226.03;;;17.78;100.00
11349;BME280;5729;43.570;27.826;2023-03-23T14:13:15;99219.03;;;17.73;100.00
11349;BME280;5729;43.570;27.826;2023-03-23T14:15:56;99221.25;;;17.30;100.00
11349;BME280;5729;43.570;27.826;2023-03-23T14:18:25;99228.78;;;16.98;100.00
11349;BME280;5729;43.570;27.826;2023-03-23T14:20:51;99215.94;;;16.98;100.00
11349;BME280;5729;43.570;27.826;2023-03-23T14:23:18;99218.28;;;17.00;100.00
11349;BME280;5729;43.570;27.826;2023-03-23T14:25:44;99223.13;;;16.21;100.00
11349;BME280;5729;43.570;27.826;2023-03-23T14:28:19;99224.31;;;16.03;100.00
11349;BME280;5729;43.570;27.826;2023-03-23T14:30:46;99219.25;;;16.01;100.00
11349;BME280;5729;43.570;27.826;2023-03-23T14:33:12;99216.91;;;15.64;100.00
11349;BME280;5729;43.570;27.826;2023-03-23T14:35:41;99220.81;;;15.77;100.00
11349;BME280;5729;43.570;27.826;2023-03-23T14:38:15;99219.53;;;15.36;100.00
11349;BME280;5729;43.570;27.826;2023-03-23T14:40:42;99219.50;;;15.21;100.00
11349;BME280;5729;43.570;27.826;2023-03-23T14:43:09;99211.72;;;15.09;100.00
11349;BME280;5729;43.570;27.826;2023-03-23T14:45:38;99219.13;;;15.26;100.00
11349;BME280;5729;43.570;27.826;2023-03-23T14:48:05;99215.66;;;15.37;100.00
11349;BME280;5729;43.570;27.826;2023-03-23T14:50:48;99215.25;;;15.27;100.00
11349;BME280;5729;43.570;27.826;2023-03-23T14:53:22;99217.09;;;15.02;100.00
11349;BME280;5729;43.570;27.826;2023-03-23T14:55:49;99220.94;;;14.94;100.00
11349;BME280;5729;43.570;27.826;2023-03-23T14:58:17;99207.38;;;14.94;100.00